sensor_id;sensor_type;location;lat;lon;timestamp;P1;durP1;ratioP1;P2;durP2;ratioP2
27618;SDS011;15039;50.830;4.730;2023-07-13T00:01:25;3.92;;;1.20;;
27618;SDS011;15039;50.830;4.730;2023-07-13T00:03:51;2.63;;;1.00;;
27618;SDS011;15039;50.830;4.730;2023-07-13T00:06:17;5.43;;;2.00;;
27618;SDS011;15039;50.830;4.730;2023-07-13T00:08:44;4.20;;;1.30;;
27618;SDS011;15039;50.830;4.730;2023-07-13T00:11:10;2.85;;;1.20;;
27618;SDS011;15039;50.830;4.730;2023-07-13T00:13:36;3.20;;;1.50;;
27618;SDS011;15039;50.830;4.730;2023-07-13T00:16:04;2.20;;;0.90;;
27618;SDS011;15039;50.830;4.730;2023-07-13T00:18:30;3.60;;;1.15;;
27618;SDS011;15039;50.830;4.730;2023-07-13T00:20:56;3.95;;;1.30;;
27618;SDS011;15039;50.830;4.730;2023-07-13T00:23:30;5.22;;;1.20;;
27618;SDS011;15039;50.830;4.730;2023-07-13T00:26:03;3.78;;;1.10;;
27618;SDS011;15039;50.830;4.730;2023-07-13T00:28:29;7.00;;;1.23;;
27618;SDS011;15039;50.830;4.730;2023-07-13T00:30:55;4.45;;;1.70;;
27618;SDS011;15039;50.830;4.730;2023-07-13T00:33:21;5.95;;;1.42;;
27618;SDS011;15039;50.830;4.730;2023-07-13T00:35:47;5.43;;;1.65;;
27618;SDS011;15039;50.830;4.730;2023-07-13T00:38:13;8.85;;;1.60;;
27618;SDS011;15039;50.830;4.730;2023-07-13T00:40:39;4.05;;;1.40;;
27618;SDS011;15039;50.830;4.730;2023-07-13T00:43:12;7.75;;;1.80;;
27618;SDS011;15039;50.830;4.730;2023-07-13T00:48:07;4.97;;;1.27;;
27618;SDS011;15039;50.830;4.730;2023-07-13T00:50:34;6.72;;;1.67;;
27618;SDS011;15039;50.830;4.730;2023-07-13T00:52:59;6.22;;;1.50;;
27618;SDS011;15039;50.830;4.730;2023-07-13T00:55:25;2.83;;;1.20;;
27618;SDS011;15039;50.830;4.730;2023-07-13T00:57:52;6.68;;;1.20;;
27618;SDS011;15039;50.830;4.730;2023-07-13T01:00:17;4.80;;;1.13;;
27618;SDS011;15039;50.830;4.730;2023-07-13T01:02:46;8.10;;;1.25;;
27618;SDS011;15039;50.830;4.730;2023-07-13T01:05:13;4.03;;;1.20;;
27618;SDS011;15039;50.830;4.730;2023-07-13T01:07:45;3.33;;;1.30;;
27618;SDS011;15039;50.830;4.730;2023-07-13T01:10:14;7.07;;;1.40;;
27618;SDS011;15039;50.830;4.730;2023-07-13T01:12:39;3.40;;;1.60;;
27618;SDS011;15039;50.830;4.730;2023-07-13T01:15:06;4.07;;;1.45;;
27618;SDS011;15039;50.830;4.730;2023-07-13T01:18:11;4.18;;;1.13;;
27618;SDS011;15039;50.830;4.730;2023-07-13T01:20:39;2.20;;;1.05;;
27618;SDS011;15039;50.830;4.730;2023-07-13T01:23:06;5.68;;;1.30;;
27618;SDS011;15039;50.830;4.730;2023-07-13T01:25:35;4.35;;;1.35;;
27618;SDS011;15039;50.830;4.730;2023-07-13T01:28:05;6.45;;;1.30;;
27618;SDS011;15039;50.830;4.730;2023-07-13T01:30:33;4.85;;;1.45;;
27618;SDS011;15039;50.830;4.730;2023-07-13T01:33:00;5.57;;;1.63;;
27618;SDS011;15039;50.830;4.730;2023-07-13T01:35:27;5.55;;;1.35;;
27618;SDS011;15039;50.830;4.730;2023-07-13T01:37:52;4.25;;;1.33;;
27618;SDS011;15039;50.830;4.730;2023-07-13T01:40:18;4.35;;;1.60;;
27618;SDS011;15039;50.830;4.730;2023-07-13T01:42:45;2.38;;;1.30;;
27618;SDS011;15039;50.830;4.730;2023-07-13T01:45:10;6.30;;;1.52;;
27618;SDS011;15039;50.830;4.730;2023-07-13T01:47:37;8.70;;;1.95;;
27618;SDS011;15039;50.830;4.730;2023-07-13T01:50:02;7.90;;;1.73;;
27618;SDS011;15039;50.830;4.730;2023-07-13T01:52:28;5.95;;;1.50;;
27618;SDS011;15039;50.830;4.730;2023-07-13T01:54:54;5.60;;;1.50;;
27618;SDS011;15039;50.830;4.730;2023-07-13T01:57:20;6.40;;;1.90;;
27618;SDS011;15039;50.830;4.730;2023-07-13T01:59:45;3.08;;;1.45;;
27618;SDS011;15039;50.830;4.730;2023-07-13T02:02:11;6.65;;;1.83;;
27618;SDS011;15039;50.830;4.730;2023-07-13T02:04:37;4.88;;;2.10;;
27618;SDS011;15039;50.830;4.730;2023-07-13T02:07:02;5.88;;;1.95;;
27618;SDS011;15039;50.830;4.730;2023-07-13T02:09:28;5.22;;;1.40;;
27618;SDS011;15039;50.830;4.730;2023-07-13T02:11:54;3.22;;;1.40;;
27618;SDS011;15039;50.830;4.730;2023-07-13T02:14:19;4.22;;;1.73;;
27618;SDS011;15039;50.830;4.730;2023-07-13T02:16:45;6.07;;;1.73;;
27618;SDS011;15039;50.830;4.730;2023-07-13T02:19:11;3.42;;;1.33;;
27618;SDS011;15039;50.830;4.730;2023-07-13T02:21:36;5.43;;;1.42;;
27618;SDS011;15039;50.830;4.730;2023-07-13T02:24:02;3.85;;;1.40;;
27618;SDS011;15039;50.830;4.730;2023-07-13T02:26:28;3.50;;;1.75;;
27618;SDS011;15039;50.830;4.730;2023-07-13T02:28:53;3.50;;;1.70;;
27618;SDS011;15039;50.830;4.730;2023-07-13T02:31:19;5.28;;;1.42;;
27618;SDS011;15039;50.830;4.730;2023-07-13T02:33:46;5.30;;;1.63;;
27618;SDS011;15039;50.830;4.730;2023-07-13T02:36:12;4.25;;;1.98;;
27618;SDS011;15039;50.830;4.730;2023-07-13T02:38:41;5.60;;;2.08;;
27618;SDS011;15039;50.830;4.730;2023-07-13T02:41:07;4.80;;;1.50;;
27618;SDS011;15039;50.830;4.730;2023-07-13T02:43:34;8.90;;;2.67;;
27618;SDS011;15039;50.830;4.730;2023-07-13T02:46:00;5.78;;;1.98;;
27618;SDS011;15039;50.830;4.730;2023-07-13T02:48:32;4.93;;;1.90;;
27618;SDS011;15039;50.830;4.730;2023-07-13T02:50:58;4.55;;;1.65;;
27618;SDS011;15039;50.830;4.730;2023-07-13T02:53:24;7.03;;;1.60;;
27618;SDS011;15039;50.830;4.730;2023-07-13T02:55:49;6.65;;;1.63;;
27618;SDS011;15039;50.830;4.730;2023-07-13T02:58:15;7.05;;;2.30;;
27618;SDS011;15039;50.830;4.730;2023-07-13T03:00:44;5.97;;;1.70;;
27618;SDS011;15039;50.830;4.730;2023-07-13T03:03:11;4.40;;;1.58;;
27618;SDS011;15039;50.830;4.730;2023-07-13T03:05:38;6.38;;;2.28;;
27618;SDS011;15039;50.830;4.730;2023-07-13T03:08:05;8.88;;;2.00;;
27618;SDS011;15039;50.830;4.730;2023-07-13T03:10:31;5.47;;;1.70;;
27618;SDS011;15039;50.830;4.730;2023-07-13T03:12:57;6.65;;;1.90;;
27618;SDS011;15039;50.830;4.730;2023-07-13T03:15:23;4.85;;;1.90;;
27618;SDS011;15039;50.830;4.730;2023-07-13T03:17:50;5.93;;;1.50;;
27618;SDS011;15039;50.830;4.730;2023-07-13T03:20:15;3.00;;;1.42;;
27618;SDS011;15039;50.830;4.730;2023-07-13T03:22:41;3.85;;;1.40;;
27618;SDS011;15039;50.830;4.730;2023-07-13T03:25:07;4.50;;;1.80;;
27618;SDS011;15039;50.830;4.730;2023-07-13T03:27:33;7.28;;;1.60;;
27618;SDS011;15039;50.830;4.730;2023-07-13T03:29:59;4.65;;;1.65;;
27618;SDS011;15039;50.830;4.730;2023-07-13T03:32:24;4.75;;;1.75;;
27618;SDS011;15039;50.830;4.730;2023-07-13T03:34:50;6.03;;;1.50;;
27618;SDS011;15039;50.830;4.730;2023-07-13T03:37:16;7.18;;;2.10;;
27618;SDS011;15039;50.830;4.730;2023-07-13T03:39:41;6.68;;;1.50;;
27618;SDS011;15039;50.830;4.730;2023-07-13T03:42:07;7.15;;;1.75;;
27618;SDS011;15039;50.830;4.730;2023-07-13T03:44:33;5.32;;;1.98;;
27618;SDS011;15039;50.830;4.730;2023-07-13T03:46:59;5.15;;;1.80;;
27618;SDS011;15039;50.830;4.730;2023-07-13T03:49:25;7.47;;;1.75;;
27618;SDS011;15039;50.830;4.730;2023-07-13T03:51:51;8.48;;;1.80;;
27618;SDS011;15039;50.830;4.730;2023-07-13T03:54:16;5.35;;;1.60;;
27618;SDS011;15039;50.830;4.730;2023-07-13T03:56:42;6.20;;;1.92;;
27618;SDS011;15039;50.830;4.730;2023-07-13T03:59:07;10.98;;;2.05;;
27618;SDS011;15039;50.830;4.730;2023-07-13T04:01:33;5.18;;;1.83;;
27618;SDS011;15039;50.830;4.730;2023-07-13T04:03:59;5.47;;;1.83;;
27618;SDS011;15039;50.830;4.730;2023-07-13T04:06:28;6.70;;;1.70;;
27618;SDS011;15039;50.830;4.730;2023-07-13T04:08:59;5.93;;;1.85;;
27618;SDS011;15039;50.830;4.730;2023-07-13T04:11:27;7.68;;;2.13;;
27618;SDS011;15039;50.830;4.730;2023-07-13T04:13:54;4.72;;;1.77;;
27618;SDS011;15039;50.830;4.730;2023-07-13T04:16:20;4.47;;;1.70;;
27618;SDS011;15039;50.830;4.730;2023-07-13T04:18:46;3.58;;;1.60;;
27618;SDS011;15039;50.830;4.730;2023-07-13T04:21:13;5.50;;;1.60;;
27618;SDS011;15039;50.830;4.730;2023-07-13T04:23:39;5.00;;;2.00;;
27618;SDS011;15039;50.830;4.730;2023-07-13T04:26:05;3.75;;;1.33;;
27618;SDS011;15039;50.830;4.730;2023-07-13T04:28:32;7.47;;;1.80;;
27618;SDS011;15039;50.830;4.730;2023-07-13T04:30:58;5.85;;;2.10;;
27618;SDS011;15039;50.830;4.730;2023-07-13T04:33:24;6.13;;;2.13;;
27618;SDS011;15039;50.830;4.730;2023-07-13T04:35:51;7.75;;;1.65;;
27618;SDS011;15039;50.830;4.730;2023-07-13T04:38:25;5.22;;;2.05;;
27618;SDS011;15039;50.830;4.730;2023-07-13T04:40:54;9.30;;;1.90;;
27618;SDS011;15039;50.830;4.730;2023-07-13T04:43:24;4.57;;;1.60;;
27618;SDS011;15039;50.830;4.730;2023-07-13T04:45:50;7.78;;;1.70;;
27618;SDS011;15039;50.830;4.730;2023-07-13T04:48:17;6.45;;;2.33;;
27618;SDS011;15039;50.830;4.730;2023-07-13T04:50:42;5.20;;;1.75;;
27618;SDS011;15039;50.830;4.730;2023-07-13T04:53:08;8.85;;;2.03;;
27618;SDS011;15039;50.830;4.730;2023-07-13T04:55:36;6.00;;;2.50;;
27618;SDS011;15039;50.830;4.730;2023-07-13T04:58:02;3.83;;;1.90;;
27618;SDS011;15039;50.830;4.730;2023-07-13T05:00:28;6.57;;;1.95;;
27618;SDS011;15039;50.830;4.730;2023-07-13T05:02:55;10.60;;;2.53;;
27618;SDS011;15039;50.830;4.730;2023-07-13T05:05:22;8.07;;;2.25;;
27618;SDS011;15039;50.830;4.730;2023-07-13T05:07:48;6.43;;;1.90;;
27618;SDS011;15039;50.830;4.730;2023-07-13T05:10:14;7.50;;;2.20;;
27618;SDS011;15039;50.830;4.730;2023-07-13T05:12:40;5.70;;;2.00;;
27618;SDS011;15039;50.830;4.730;2023-07-13T05:15:06;5.20;;;1.98;;
27618;SDS011;15039;50.830;4.730;2023-07-13T05:17:32;7.55;;;2.42;;
27618;SDS011;15039;50.830;4.730;2023-07-13T05:19:58;5.57;;;2.55;;
27618;SDS011;15039;50.830;4.730;2023-07-13T05:22:23;5.60;;;1.90;;
27618;SDS011;15039;50.830;4.730;2023-07-13T05:24:49;9.32;;;2.10;;
27618;SDS011;15039;50.830;4.730;2023-07-13T05:27:15;8.15;;;2.13;;
27618;SDS011;15039;50.830;4.730;2023-07-13T05:29:41;7.57;;;2.03;;
27618;SDS011;15039;50.830;4.730;2023-07-13T05:32:06;5.85;;;2.10;;
27618;SDS011;15039;50.830;4.730;2023-07-13T05:34:32;7.80;;;1.70;;
27618;SDS011;15039;50.830;4.730;2023-07-13T05:36:58;6.05;;;1.85;;
27618;SDS011;15039;50.830;4.730;2023-07-13T05:39:23;7.93;;;2.33;;
27618;SDS011;15039;50.830;4.730;2023-07-13T05:41:51;6.63;;;2.50;;
27618;SDS011;15039;50.830;4.730;2023-07-13T05:44:18;5.47;;;2.20;;
27618;SDS011;15039;50.830;4.730;2023-07-13T05:46:44;5.07;;;1.55;;
27618;SDS011;15039;50.830;4.730;2023-07-13T05:49:10;9.68;;;1.95;;
27618;SDS011;15039;50.830;4.730;2023-07-13T05:51:36;6.07;;;1.85;;
27618;SDS011;15039;50.830;4.730;2023-07-13T05:54:03;7.13;;;1.65;;
27618;SDS011;15039;50.830;4.730;2023-07-13T05:56:28;12.90;;;2.65;;
27618;SDS011;15039;50.830;4.730;2023-07-13T05:58:55;4.38;;;1.98;;
27618;SDS011;15039;50.830;4.730;2023-07-13T06:01:21;7.75;;;2.22;;
27618;SDS011;15039;50.830;4.730;2023-07-13T06:03:48;5.32;;;1.65;;
27618;SDS011;15039;50.830;4.730;2023-07-13T06:06:14;7.15;;;2.20;;
27618;SDS011;15039;50.830;4.730;2023-07-13T06:08:40;8.20;;;2.00;;
27618;SDS011;15039;50.830;4.730;2023-07-13T06:11:07;3.97;;;2.13;;
27618;SDS011;15039;50.830;4.730;2023-07-13T06:13:44;3.78;;;1.48;;
27618;SDS011;15039;50.830;4.730;2023-07-13T06:16:11;8.23;;;1.90;;
27618;SDS011;15039;50.830;4.730;2023-07-13T06:18:38;7.90;;;1.67;;
27618;SDS011;15039;50.830;4.730;2023-07-13T06:21:07;6.50;;;2.00;;
27618;SDS011;15039;50.830;4.730;2023-07-13T06:23:37;8.40;;;2.15;;
27618;SDS011;15039;50.830;4.730;2023-07-13T06:26:04;7.55;;;1.80;;
27618;SDS011;15039;50.830;4.730;2023-07-13T06:28:30;8.75;;;2.15;;
27618;SDS011;15039;50.830;4.730;2023-07-13T06:30:58;7.60;;;1.95;;
27618;SDS011;15039;50.830;4.730;2023-07-13T06:33:24;5.38;;;1.70;;
27618;SDS011;15039;50.830;4.730;2023-07-13T06:35:50;6.63;;;2.20;;
27618;SDS011;15039;50.830;4.730;2023-07-13T06:38:15;10.55;;;2.10;;
27618;SDS011;15039;50.830;4.730;2023-07-13T06:40:41;9.30;;;2.20;;
27618;SDS011;15039;50.830;4.730;2023-07-13T06:43:07;5.82;;;1.65;;
27618;SDS011;15039;50.830;4.730;2023-07-13T06:45:35;8.63;;;2.58;;
27618;SDS011;15039;50.830;4.730;2023-07-13T06:48:05;4.47;;;1.63;;
27618;SDS011;15039;50.830;4.730;2023-07-13T06:50:31;10.43;;;2.92;;
27618;SDS011;15039;50.830;4.730;2023-07-13T06:52:58;7.93;;;2.30;;
27618;SDS011;15039;50.830;4.730;2023-07-13T06:55:24;6.22;;;1.80;;
27618;SDS011;15039;50.830;4.730;2023-07-13T06:57:51;6.15;;;1.98;;
27618;SDS011;15039;50.830;4.730;2023-07-13T07:00:16;7.70;;;1.70;;
27618;SDS011;15039;50.830;4.730;2023-07-13T07:02:42;7.63;;;1.90;;
27618;SDS011;15039;50.830;4.730;2023-07-13T07:05:08;3.65;;;1.83;;
27618;SDS011;15039;50.830;4.730;2023-07-13T07:07:34;5.93;;;1.85;;
27618;SDS011;15039;50.830;4.730;2023-07-13T07:09:59;6.20;;;2.03;;
27618;SDS011;15039;50.830;4.730;2023-07-13T07:12:25;6.32;;;2.00;;
27618;SDS011;15039;50.830;4.730;2023-07-13T07:14:50;5.95;;;1.70;;
27618;SDS011;15039;50.830;4.730;2023-07-13T07:17:16;7.30;;;2.20;;
27618;SDS011;15039;50.830;4.730;2023-07-13T07:19:43;10.23;;;2.45;;
27618;SDS011;15039;50.830;4.730;2023-07-13T07:22:10;8.87;;;1.90;;
27618;SDS011;15039;50.830;4.730;2023-07-13T07:24:36;7.07;;;2.10;;
27618;SDS011;15039;50.830;4.730;2023-07-13T07:27:02;5.25;;;2.38;;
27618;SDS011;15039;50.830;4.730;2023-07-13T07:29:28;6.93;;;2.50;;
27618;SDS011;15039;50.830;4.730;2023-07-13T07:31:53;9.82;;;2.55;;
27618;SDS011;15039;50.830;4.730;2023-07-13T07:34:19;7.25;;;1.80;;
27618;SDS011;15039;50.830;4.730;2023-07-13T07:36:45;7.10;;;2.15;;
27618;SDS011;15039;50.830;4.730;2023-07-13T07:39:10;7.15;;;1.60;;
27618;SDS011;15039;50.830;4.730;2023-07-13T07:41:36;5.35;;;1.55;;
27618;SDS011;15039;50.830;4.730;2023-07-13T07:44:02;7.30;;;2.10;;
27618;SDS011;15039;50.830;4.730;2023-07-13T07:46:31;4.78;;;1.92;;
27618;SDS011;15039;50.830;4.730;2023-07-13T07:48:57;4.55;;;1.90;;
27618;SDS011;15039;50.830;4.730;2023-07-13T07:51:23;5.55;;;2.53;;
27618;SDS011;15039;50.830;4.730;2023-07-13T07:53:48;4.95;;;1.70;;
27618;SDS011;15039;50.830;4.730;2023-07-13T07:56:14;7.10;;;1.80;;
27618;SDS011;15039;50.830;4.730;2023-07-13T07:58:41;9.45;;;1.83;;
27618;SDS011;15039;50.830;4.730;2023-07-13T08:01:07;6.50;;;2.03;;
27618;SDS011;15039;50.830;4.730;2023-07-13T08:03:33;3.67;;;1.83;;
27618;SDS011;15039;50.830;4.730;2023-07-13T08:05:59;4.97;;;1.55;;
27618;SDS011;15039;50.830;4.730;2023-07-13T08:08:25;5.32;;;1.65;;
27618;SDS011;15039;50.830;4.730;2023-07-13T08:10:52;7.22;;;2.20;;
27618;SDS011;15039;50.830;4.730;2023-07-13T08:13:19;3.60;;;1.50;;
27618;SDS011;15039;50.830;4.730;2023-07-13T08:15:45;5.65;;;1.85;;
27618;SDS011;15039;50.830;4.730;2023-07-13T08:18:11;5.68;;;1.75;;
27618;SDS011;15039;50.830;4.730;2023-07-13T08:20:40;10.23;;;2.05;;
27618;SDS011;15039;50.830;4.730;2023-07-13T08:23:09;4.45;;;1.70;;
27618;SDS011;15039;50.830;4.730;2023-07-13T08:28:01;5.68;;;1.83;;
27618;SDS011;15039;50.830;4.730;2023-07-13T08:30:30;8.10;;;1.88;;
27618;SDS011;15039;50.830;4.730;2023-07-13T08:32:56;6.53;;;2.00;;
27618;SDS011;15039;50.830;4.730;2023-07-13T08:35:22;6.15;;;1.80;;
27618;SDS011;15039;50.830;4.730;2023-07-13T08:37:47;3.80;;;1.70;;
27618;SDS011;15039;50.830;4.730;2023-07-13T08:40:13;3.15;;;1.90;;
27618;SDS011;15039;50.830;4.730;2023-07-13T08:42:39;2.90;;;1.30;;
27618;SDS011;15039;50.830;4.730;2023-07-13T08:45:22;4.63;;;1.50;;
27618;SDS011;15039;50.830;4.730;2023-07-13T08:47:57;4.38;;;1.38;;
27618;SDS011;15039;50.830;4.730;2023-07-13T08:52:58;4.17;;;1.17;;
27618;SDS011;15039;50.830;4.730;2023-07-13T08:55:30;4.60;;;1.85;;
27618;SDS011;15039;50.830;4.730;2023-07-13T08:58:03;5.45;;;1.52;;
27618;SDS011;15039;50.830;4.730;2023-07-13T09:00:39;4.53;;;1.23;;
27618;SDS011;15039;50.830;4.730;2023-07-13T09:03:12;3.40;;;1.13;;
27618;SDS011;15039;50.830;4.730;2023-07-13T09:05:45;3.22;;;1.25;;
27618;SDS011;15039;50.830;4.730;2023-07-13T09:11:17;5.18;;;1.48;;
27618;SDS011;15039;50.830;4.730;2023-07-13T09:16:39;2.83;;;1.30;;
27618;SDS011;15039;50.830;4.730;2023-07-13T09:19:06;5.20;;;1.92;;
27618;SDS011;15039;50.830;4.730;2023-07-13T09:21:37;3.08;;;1.27;;
27618;SDS011;15039;50.830;4.730;2023-07-13T09:27:05;5.78;;;1.80;;
27618;SDS011;15039;50.830;4.730;2023-07-13T09:30:03;5.70;;;1.58;;
27618;SDS011;15039;50.830;4.730;2023-07-13T09:32:39;4.38;;;1.42;;
27618;SDS011;15039;50.830;4.730;2023-07-13T09:37:36;7.32;;;2.20;;
27618;SDS011;15039;50.830;4.730;2023-07-13T09:40:02;4.20;;;1.48;;
27618;SDS011;15039;50.830;4.730;2023-07-13T09:42:30;4.18;;;1.30;;
27618;SDS011;15039;50.830;4.730;2023-07-13T09:45:01;3.10;;;1.45;;
27618;SDS011;15039;50.830;4.730;2023-07-13T09:47:32;5.70;;;1.23;;
27618;SDS011;15039;50.830;4.730;2023-07-13T09:50:06;3.25;;;1.40;;
27618;SDS011;15039;50.830;4.730;2023-07-13T09:58:13;3.92;;;1.35;;
27618;SDS011;15039;50.830;4.730;2023-07-13T10:00:41;5.00;;;1.30;;
27618;SDS011;15039;50.830;4.730;2023-07-13T10:03:26;2.40;;;0.95;;
27618;SDS011;15039;50.830;4.730;2023-07-13T10:05:53;3.33;;;1.23;;
27618;SDS011;15039;50.830;4.730;2023-07-13T10:11:13;8.38;;;1.85;;
27618;SDS011;15039;50.830;4.730;2023-07-13T10:13:51;2.45;;;1.27;;
27618;SDS011;15039;50.830;4.730;2023-07-13T10:16:20;3.53;;;1.67;;
27618;SDS011;15039;50.830;4.730;2023-07-13T10:18:55;2.05;;;1.00;;
27618;SDS011;15039;50.830;4.730;2023-07-13T10:21:26;2.60;;;1.20;;
27618;SDS011;15039;50.830;4.730;2023-07-13T10:23:57;5.15;;;1.33;;
27618;SDS011;15039;50.830;4.730;2023-07-13T10:26:31;4.20;;;1.02;;
27618;SDS011;15039;50.830;4.730;2023-07-13T10:29:01;6.00;;;1.27;;
27618;SDS011;15039;50.830;4.730;2023-07-13T10:31:34;2.35;;;1.00;;
27618;SDS011;15039;50.830;4.730;2023-07-13T10:34:03;4.50;;;1.35;;
27618;SDS011;15039;50.830;4.730;2023-07-13T10:36:40;4.38;;;1.20;;
27618;SDS011;15039;50.830;4.730;2023-07-13T10:39:10;4.10;;;1.17;;
27618;SDS011;15039;50.830;4.730;2023-07-13T10:41:44;5.43;;;1.60;;
27618;SDS011;15039;50.830;4.730;2023-07-13T10:44:34;2.80;;;1.00;;
27618;SDS011;15039;50.830;4.730;2023-07-13T10:47:01;3.33;;;1.10;;
27618;SDS011;15039;50.830;4.730;2023-07-13T10:49:32;2.88;;;0.88;;
27618;SDS011;15039;50.830;4.730;2023-07-13T10:52:00;6.47;;;1.10;;
27618;SDS011;15039;50.830;4.730;2023-07-13T10:54:33;3.42;;;1.10;;
27618;SDS011;15039;50.830;4.730;2023-07-13T10:57:18;3.78;;;1.27;;
27618;SDS011;15039;50.830;4.730;2023-07-13T10:59:47;2.67;;;1.17;;
27618;SDS011;15039;50.830;4.730;2023-07-13T11:02:17;4.43;;;1.20;;
27618;SDS011;15039;50.830;4.730;2023-07-13T11:04:49;5.05;;;1.17;;
27618;SDS011;15039;50.830;4.730;2023-07-13T11:07:19;4.70;;;0.93;;
27618;SDS011;15039;50.830;4.730;2023-07-13T11:09:59;2.28;;;1.17;;
27618;SDS011;15039;50.830;4.730;2023-07-13T11:15:13;2.53;;;0.93;;
27618;SDS011;15039;50.830;4.730;2023-07-13T11:17:49;2.47;;;1.02;;
27618;SDS011;15039;50.830;4.730;2023-07-13T11:25:31;5.95;;;1.52;;
27618;SDS011;15039;50.830;4.730;2023-07-13T11:33:22;1.67;;;0.88;;
27618;SDS011;15039;50.830;4.730;2023-07-13T11:36:14;2.85;;;1.10;;
27618;SDS011;15039;50.830;4.730;2023-07-13T11:38:43;3.28;;;0.80;;
27618;SDS011;15039;50.830;4.730;2023-07-13T11:43:53;2.65;;;1.02;;
27618;SDS011;15039;50.830;4.730;2023-07-13T11:46:21;1.83;;;0.90;;
27618;SDS011;15039;50.830;4.730;2023-07-13T11:48:50;2.35;;;0.77;;
27618;SDS011;15039;50.830;4.730;2023-07-13T11:51:20;1.75;;;0.82;;
27618;SDS011;15039;50.830;4.730;2023-07-13T11:53:49;1.25;;;0.80;;
27618;SDS011;15039;50.830;4.730;2023-07-13T11:56:16;2.67;;;1.00;;
27618;SDS011;15039;50.830;4.730;2023-07-13T11:58:43;1.90;;;0.80;;
27618;SDS011;15039;50.830;4.730;2023-07-13T12:01:18;3.03;;;0.82;;
27618;SDS011;15039;50.830;4.730;2023-07-13T12:03:49;4.00;;;1.30;;
27618;SDS011;15039;50.830;4.730;2023-07-13T12:06:33;2.78;;;0.82;;
27618;SDS011;15039;50.830;4.730;2023-07-13T12:09:12;2.15;;;0.90;;
27618;SDS011;15039;50.830;4.730;2023-07-13T12:11:41;2.70;;;1.40;;
27618;SDS011;15039;50.830;4.730;2023-07-13T12:14:15;2.50;;;0.77;;
27618;SDS011;15039;50.830;4.730;2023-07-13T12:16:41;2.20;;;0.90;;
27618;SDS011;15039;50.830;4.730;2023-07-13T12:19:14;1.58;;;0.80;;
27618;SDS011;15039;50.830;4.730;2023-07-13T12:21:46;2.47;;;0.90;;
27618;SDS011;15039;50.830;4.730;2023-07-13T12:24:17;3.42;;;1.23;;
27618;SDS011;15039;50.830;4.730;2023-07-13T12:26:44;1.63;;;0.85;;
27618;SDS011;15039;50.830;4.730;2023-07-13T12:29:16;4.43;;;0.85;;
27618;SDS011;15039;50.830;4.730;2023-07-13T12:31:44;2.03;;;0.80;;
27618;SDS011;15039;50.830;4.730;2023-07-13T12:36:49;2.17;;;0.88;;
27618;SDS011;15039;50.830;4.730;2023-07-13T12:39:33;2.30;;;0.80;;
27618;SDS011;15039;50.830;4.730;2023-07-13T12:44:58;2.33;;;0.73;;
27618;SDS011;15039;50.830;4.730;2023-07-13T12:47:42;2.30;;;0.70;;
27618;SDS011;15039;50.830;4.730;2023-07-13T12:50:12;1.70;;;0.90;;
27618;SDS011;15039;50.830;4.730;2023-07-13T12:52:42;1.52;;;0.90;;
27618;SDS011;15039;50.830;4.730;2023-07-13T12:55:16;1.52;;;0.80;;
27618;SDS011;15039;50.830;4.730;2023-07-13T12:57:53;5.40;;;1.35;;
27618;SDS011;15039;50.830;4.730;2023-07-13T13:00:25;2.53;;;0.73;;
27618;SDS011;15039;50.830;4.730;2023-07-13T13:03:00;1.73;;;0.98;;
27618;SDS011;15039;50.830;4.730;2023-07-13T13:05:28;0.95;;;0.60;;
27618;SDS011;15039;50.830;4.730;2023-07-13T13:07:55;2.15;;;1.00;;
27618;SDS011;15039;50.830;4.730;2023-07-13T13:10:22;2.08;;;1.02;;
27618;SDS011;15039;50.830;4.730;2023-07-13T13:12:47;4.32;;;1.50;;
27618;SDS011;15039;50.830;4.730;2023-07-13T13:15:13;2.00;;;1.00;;
27618;SDS011;15039;50.830;4.730;2023-07-13T13:17:39;2.08;;;0.85;;
27618;SDS011;15039;50.830;4.730;2023-07-13T13:20:15;1.00;;;0.80;;
27618;SDS011;15039;50.830;4.730;2023-07-13T13:22:42;0.68;;;0.60;;
27618;SDS011;15039;50.830;4.730;2023-07-13T13:25:12;2.95;;;0.80;;
27618;SDS011;15039;50.830;4.730;2023-07-13T13:27:40;1.23;;;0.73;;
27618;SDS011;15039;50.830;4.730;2023-07-13T13:30:14;2.13;;;1.02;;
27618;SDS011;15039;50.830;4.730;2023-07-13T13:32:45;2.30;;;1.35;;
27618;SDS011;15039;50.830;4.730;2023-07-13T13:35:16;1.58;;;0.98;;
27618;SDS011;15039;50.830;4.730;2023-07-13T13:37:43;2.65;;;0.80;;
27618;SDS011;15039;50.830;4.730;2023-07-13T13:40:17;1.27;;;0.98;;
27618;SDS011;15039;50.830;4.730;2023-07-13T13:42:44;2.30;;;0.88;;
27618;SDS011;15039;50.830;4.730;2023-07-13T13:45:10;1.42;;;0.82;;
27618;SDS011;15039;50.830;4.730;2023-07-13T13:47:37;2.15;;;0.93;;
27618;SDS011;15039;50.830;4.730;2023-07-13T13:50:10;2.72;;;1.13;;
27618;SDS011;15039;50.830;4.730;2023-07-13T13:52:36;2.35;;;0.80;;
27618;SDS011;15039;50.830;4.730;2023-07-13T13:55:04;2.60;;;0.60;;
27618;SDS011;15039;50.830;4.730;2023-07-13T13:57:36;1.60;;;0.80;;
27618;SDS011;15039;50.830;4.730;2023-07-13T14:00:02;3.78;;;1.05;;
27618;SDS011;15039;50.830;4.730;2023-07-13T14:02:28;2.10;;;1.00;;
27618;SDS011;15039;50.830;4.730;2023-07-13T14:04:58;2.72;;;1.02;;
27618;SDS011;15039;50.830;4.730;2023-07-13T14:07:26;1.60;;;0.80;;
27618;SDS011;15039;50.830;4.730;2023-07-13T14:09:55;1.67;;;0.60;;
27618;SDS011;15039;50.830;4.730;2023-07-13T14:12:22;2.33;;;0.80;;
27618;SDS011;15039;50.830;4.730;2023-07-13T14:14:51;1.25;;;0.80;;
27618;SDS011;15039;50.830;4.730;2023-07-13T14:17:20;3.25;;;1.00;;
27618;SDS011;15039;50.830;4.730;2023-07-13T14:19:49;2.92;;;1.13;;
27618;SDS011;15039;50.830;4.730;2023-07-13T14:22:16;3.42;;;1.05;;
27618;SDS011;15039;50.830;4.730;2023-07-13T14:24:43;2.58;;;0.90;;
27618;SDS011;15039;50.830;4.730;2023-07-13T14:27:10;1.17;;;0.80;;
27618;SDS011;15039;50.830;4.730;2023-07-13T14:29:37;3.00;;;0.90;;
27618;SDS011;15039;50.830;4.730;2023-07-13T14:32:03;1.33;;;0.82;;
27618;SDS011;15039;50.830;4.730;2023-07-13T14:34:30;1.88;;;1.02;;
27618;SDS011;15039;50.830;4.730;2023-07-13T14:36:55;1.65;;;0.80;;
27618;SDS011;15039;50.830;4.730;2023-07-13T14:39:22;2.38;;;0.82;;
27618;SDS011;15039;50.830;4.730;2023-07-13T14:41:53;3.83;;;0.80;;
27618;SDS011;15039;50.830;4.730;2023-07-13T14:44:21;1.10;;;0.70;;
27618;SDS011;15039;50.830;4.730;2023-07-13T14:46:57;1.88;;;0.95;;
27618;SDS011;15039;50.830;4.730;2023-07-13T14:51:54;2.58;;;0.90;;
27618;SDS011;15039;50.830;4.730;2023-07-13T14:54:22;1.65;;;0.80;;
27618;SDS011;15039;50.830;4.730;2023-07-13T14:56:48;1.55;;;1.00;;
27618;SDS011;15039;50.830;4.730;2023-07-13T14:59:14;0.80;;;0.80;;
27618;SDS011;15039;50.830;4.730;2023-07-13T15:01:41;2.20;;;0.90;;
27618;SDS011;15039;50.830;4.730;2023-07-13T15:04:08;1.70;;;0.77;;
27618;SDS011;15039;50.830;4.730;2023-07-13T15:06:56;2.35;;;0.93;;
27618;SDS011;15039;50.830;4.730;2023-07-13T15:09:25;1.23;;;0.80;;
27618;SDS011;15039;50.830;4.730;2023-07-13T15:11:55;1.75;;;0.75;;
27618;SDS011;15039;50.830;4.730;2023-07-13T15:14:21;1.42;;;1.00;;
27618;SDS011;15039;50.830;4.730;2023-07-13T15:16:49;2.95;;;1.05;;
27618;SDS011;15039;50.830;4.730;2023-07-13T15:19:19;3.05;;;1.00;;
27618;SDS011;15039;50.830;4.730;2023-07-13T15:21:46;1.48;;;0.70;;
27618;SDS011;15039;50.830;4.730;2023-07-13T15:24:13;1.95;;;1.02;;
27618;SDS011;15039;50.830;4.730;2023-07-13T15:26:42;3.35;;;0.93;;
27618;SDS011;15039;50.830;4.730;2023-07-13T15:29:13;2.13;;;0.70;;
27618;SDS011;15039;50.830;4.730;2023-07-13T15:31:41;2.58;;;1.02;;
27618;SDS011;15039;50.830;4.730;2023-07-13T15:34:14;2.28;;;0.82;;
27618;SDS011;15039;50.830;4.730;2023-07-13T15:36:42;1.77;;;0.88;;
27618;SDS011;15039;50.830;4.730;2023-07-13T15:39:10;2.25;;;0.85;;
27618;SDS011;15039;50.830;4.730;2023-07-13T15:41:41;2.58;;;1.20;;
27618;SDS011;15039;50.830;4.730;2023-07-13T15:44:41;3.05;;;1.02;;
27618;SDS011;15039;50.830;4.730;2023-07-13T15:47:02;1.30;;;0.90;;